createdAt,value
2019-03-24T00:01:25.469Z,33.13
2019-03-24T00:03:54.017Z,32.65
2019-03-24T00:06:22.301Z,32.48
2019-03-24T00:08:52.270Z,33.16
2019-03-24T00:11:20.550Z,33.67
2019-03-24T00:13:48.866Z,33.15
2019-03-24T00:16:17.137Z,32.67
2019-03-24T00:18:45.414Z,32.64
2019-03-24T00:21:13.691Z,32.93
2019-03-24T00:23:41.965Z,33.38
2019-03-24T00:26:10.266Z,32.71
2019-03-24T00:28:38.528Z,32.59
2019-03-24T00:31:06.854Z,33.76
2019-03-24T00:33:35.131Z,33.26
2019-03-24T00:36:03.392Z,33.68
2019-03-24T00:38:31.690Z,33.68
2019-03-24T00:40:59.944Z,34.34
2019-03-24T00:43:29.107Z,34.62
2019-03-24T00:45:57.381Z,35.87
2019-03-24T00:48:25.648Z,34.91
2019-03-24T00:50:54.013Z,34.07
2019-03-24T00:53:22.296Z,33.09
2019-03-24T00:55:50.637Z,34.64
2019-03-24T00:58:18.986Z,33.92
2019-03-24T01:00:49.295Z,32.74
2019-03-24T01:03:18.160Z,32.71
2019-03-24T01:05:46.865Z,32.99
2019-03-24T01:08:15.660Z,33.67
2019-03-24T01:10:43.948Z,33.10
2019-03-24T01:13:13.644Z,33.15
2019-03-24T01:15:47.763Z,32.71
2019-03-24T01:18:12.875Z,32.83
2019-03-24T01:20:41.153Z,32.94
2019-03-24T01:23:09.454Z,33.42
2019-03-24T01:25:37.842Z,33.98
2019-03-24T01:28:06.191Z,33.29
2019-03-24T01:30:34.520Z,32.65
2019-03-24T01:33:02.804Z,32.72
2019-03-24T01:35:31.102Z,34.43
2019-03-24T01:37:59.377Z,32.29
2019-03-24T01:40:27.636Z,34.86
2019-03-24T01:42:56.820Z,33.01
2019-03-24T01:45:25.092Z,33.46
2019-03-24T01:47:53.353Z,33.30
2019-03-24T01:50:21.633Z,34.32
2019-03-24T01:52:49.922Z,33.88
2019-03-24T01:55:18.197Z,33.38
2019-03-24T01:57:46.465Z,32.59
2019-03-24T02:00:15.471Z,32.83
2019-03-24T02:02:43.748Z,36.42
2019-03-24T02:05:12.127Z,33.59
2019-03-24T02:07:40.372Z,32.80
2019-03-24T02:10:09.663Z,32.99
2019-03-24T02:12:38.045Z,33.11
2019-03-24T02:15:07.945Z,33.38
2019-03-24T02:17:36.207Z,33.29
2019-03-24T02:20:06.007Z,34.14
2019-03-24T02:22:34.289Z,34.63
2019-03-24T02:25:02.629Z,34.85
2019-03-24T02:27:30.919Z,34.78
2019-03-24T02:29:59.189Z,35.48
2019-03-24T02:32:27.469Z,35.79
2019-03-24T02:34:55.735Z,34.20
2019-03-24T02:37:24.000Z,33.80
2019-03-24T02:39:52.332Z,35.31
2019-03-24T02:42:20.605Z,34.66
2019-03-24T02:44:48.893Z,34.00
2019-03-24T02:47:17.174Z,33.69
2019-03-24T02:49:45.502Z,34.03
2019-03-24T02:52:13.759Z,33.71
2019-03-24T02:54:42.022Z,34.70
2019-03-24T02:57:10.301Z,34.22
2019-03-24T02:59:38.593Z,34.66
2019-03-24T03:02:06.922Z,33.64
2019-03-24T03:04:35.199Z,32.83
2019-03-24T03:07:03.468Z,32.79
2019-03-24T03:09:31.750Z,33.92
2019-03-24T03:12:00.094Z,34.44
2019-03-24T03:14:28.376Z,33.29
2019-03-24T03:16:56.713Z,33.37
2019-03-24T03:19:24.993Z,33.48
2019-03-24T03:21:53.279Z,33.90
2019-03-24T03:24:21.546Z,33.80
2019-03-24T03:26:49.843Z,34.50
2019-03-24T03:29:18.100Z,33.97
2019-03-24T03:31:46.727Z,33.88
2019-03-24T03:34:14.966Z,33.09
2019-03-24T03:36:43.318Z,34.00
2019-03-24T03:39:11.634Z,34.28
2019-03-24T03:41:39.969Z,34.04
2019-03-24T03:44:08.230Z,34.59
2019-03-24T03:46:36.529Z,34.33
2019-03-24T03:49:04.863Z,35.21
2019-03-24T03:51:33.223Z,33.26
2019-03-24T03:54:01.500Z,32.74
2019-03-24T03:56:29.806Z,34.13
2019-03-24T03:58:58.056Z,33.60
2019-03-24T04:01:26.321Z,33.41
2019-03-24T04:03:54.621Z,33.91
2019-03-24T04:06:22.882Z,33.95
2019-03-24T04:08:51.167Z,33.74
2019-03-24T04:11:19.431Z,33.83
2019-03-24T04:13:47.723Z,34.57
2019-03-24T04:16:16.007Z,33.98
2019-03-24T04:18:44.347Z,34.47
2019-03-24T04:21:12.693Z,34.01
2019-03-24T04:23:40.960Z,33.48
2019-03-24T04:26:09.272Z,33.89
2019-03-24T04:28:37.523Z,33.62
2019-03-24T04:31:05.885Z,33.60
2019-03-24T04:33:34.162Z,34.21
2019-03-24T04:36:02.439Z,34.45
2019-03-24T04:38:30.724Z,33.52
2019-03-24T04:40:58.991Z,33.71
2019-03-24T04:43:27.277Z,34.00
2019-03-24T04:45:56.337Z,33.49
2019-03-24T04:48:24.613Z,34.23
2019-03-24T04:50:52.892Z,33.33
2019-03-24T04:53:21.154Z,33.97
2019-03-24T04:55:49.412Z,33.75
2019-03-24T04:58:17.678Z,34.40
2019-03-24T05:00:46.031Z,34.50
2019-03-24T05:03:15.090Z,33.69
2019-03-24T05:05:43.371Z,34.18
2019-03-24T05:08:13.420Z,34.60
2019-03-24T05:10:41.912Z,34.93
2019-03-24T05:13:10.195Z,34.81
2019-03-24T05:15:38.546Z,35.17
2019-03-24T05:18:06.814Z,35.16
2019-03-24T05:20:35.188Z,34.22
2019-03-24T05:23:03.469Z,35.92
2019-03-24T05:25:31.755Z,34.51
2019-03-24T05:28:00.038Z,34.53
2019-03-24T05:30:28.345Z,34.21
2019-03-24T05:32:56.630Z,34.79
2019-03-24T05:35:24.910Z,35.06
2019-03-24T05:37:54.840Z,35.58
2019-03-24T05:40:23.105Z,34.88
2019-03-24T05:42:51.384Z,34.82
2019-03-24T05:45:19.648Z,34.31
2019-03-24T05:47:47.931Z,35.68
2019-03-24T05:50:16.228Z,34.84
2019-03-24T05:52:44.545Z,34.22
2019-03-24T05:55:12.897Z,34.37
2019-03-24T05:57:41.185Z,34.55
2019-03-24T06:00:09.770Z,35.73
2019-03-24T06:02:38.145Z,35.08
2019-03-24T06:05:07.346Z,34.73
2019-03-24T06:07:35.641Z,34.78
2019-03-24T06:10:05.834Z,34.10
2019-03-24T06:12:34.106Z,34.93
2019-03-24T06:15:02.377Z,34.97
2019-03-24T06:17:30.646Z,34.48
2019-03-24T06:19:58.929Z,33.86
2019-03-24T06:22:27.194Z,35.07
2019-03-24T06:24:55.450Z,34.39
2019-03-24T06:27:23.736Z,34.49
2019-03-24T06:29:52.004Z,34.58
2019-03-24T06:32:20.275Z,34.31
2019-03-24T06:34:48.532Z,34.99
2019-03-24T06:37:16.811Z,34.22
2019-03-24T06:39:45.102Z,34.66
2019-03-24T06:42:13.414Z,35.92
2019-03-24T06:44:41.696Z,34.92
2019-03-24T06:47:09.959Z,34.49
2019-03-24T06:49:38.242Z,34.92
2019-03-24T06:52:06.520Z,35.02
2019-03-24T06:54:34.794Z,35.17
2019-03-24T06:57:03.129Z,35.11
2019-03-24T06:59:31.408Z,34.25
2019-03-24T07:01:59.671Z,36.21
2019-03-24T07:04:27.961Z,34.47
2019-03-24T07:06:57.875Z,34.64
2019-03-24T07:09:26.173Z,34.63
2019-03-24T07:11:54.474Z,35.64
2019-03-24T07:14:22.746Z,34.80
2019-03-24T07:16:51.037Z,35.53
2019-03-24T07:19:19.304Z,35.22
2019-03-24T07:21:47.592Z,34.64
2019-03-24T07:24:15.859Z,35.71
2019-03-24T07:26:44.193Z,35.38
2019-03-24T07:29:12.467Z,35.42
2019-03-24T07:31:40.763Z,35.70
2019-03-24T07:34:09.140Z,35.82
2019-03-24T07:36:37.417Z,36.18
2019-03-24T07:39:07.618Z,35.49
2019-03-24T07:41:35.913Z,36.01
2019-03-24T07:44:04.250Z,34.19
2019-03-24T07:46:32.533Z,34.76
2019-03-24T07:49:00.880Z,37.11
2019-03-24T07:51:29.174Z,34.23
2019-03-24T07:53:57.442Z,34.09
2019-03-24T07:56:25.710Z,34.50
2019-03-24T07:58:53.987Z,35.16
2019-03-24T08:01:22.257Z,34.07
2019-03-24T08:03:50.561Z,34.41
2019-03-24T08:06:18.815Z,35.91
2019-03-24T08:08:47.101Z,35.14
2019-03-24T08:11:15.373Z,36.73
2019-03-24T08:13:53.232Z,35.26
2019-03-24T08:16:13.649Z,34.84
2019-03-24T08:18:41.930Z,34.35
2019-03-24T08:21:10.225Z,34.29
2019-03-24T08:23:38.496Z,34.25
2019-03-24T08:26:06.779Z,34.81
2019-03-24T08:28:35.050Z,35.23
2019-03-24T08:31:03.315Z,34.45
2019-03-24T08:33:31.570Z,34.44
2019-03-24T08:35:59.844Z,33.59
2019-03-24T08:38:28.110Z,32.99
2019-03-24T08:40:56.409Z,32.66
2019-03-24T08:43:24.689Z,33.89
2019-03-24T08:45:52.958Z,33.49
2019-03-24T08:48:21.212Z,33.09
2019-03-24T08:50:49.490Z,33.78
2019-03-24T08:53:17.776Z,34.04
2019-03-24T08:55:46.058Z,34.07
2019-03-24T08:58:14.337Z,33.62
2019-03-24T09:00:42.602Z,33.33
2019-03-24T09:03:10.893Z,32.84
2019-03-24T09:05:39.181Z,32.97
2019-03-24T09:08:07.495Z,32.72
2019-03-24T09:10:35.787Z,32.28
2019-03-24T09:13:04.155Z,32.26
2019-03-24T09:15:32.446Z,32.90
2019-03-24T09:18:00.698Z,31.88
2019-03-24T09:20:29.001Z,31.64
2019-03-24T09:22:57.283Z,32.86
2019-03-24T09:25:25.621Z,32.87
2019-03-24T09:27:53.912Z,32.97
2019-03-24T09:30:36.111Z,31.49
2019-03-24T09:33:05.240Z,30.78
2019-03-24T09:35:33.538Z,30.42
2019-03-24T09:38:01.866Z,31.83
2019-03-24T09:40:32.082Z,31.87
2019-03-24T09:43:00.490Z,31.57
2019-03-24T09:45:30.027Z,30.85
2019-03-24T09:47:58.669Z,31.03
2019-03-24T09:50:27.014Z,30.91
2019-03-24T09:52:55.334Z,30.58
2019-03-24T09:55:23.649Z,30.25
2019-03-24T09:57:51.919Z,29.75
2019-03-24T10:00:20.199Z,30.62
2019-03-24T10:02:48.506Z,29.96
2019-03-24T10:05:16.751Z,30.08
2019-03-24T10:07:45.019Z,29.79
2019-03-24T10:10:13.302Z,30.05
2019-03-24T10:12:41.645Z,29.55
2019-03-24T10:15:10.110Z,29.74
2019-03-24T10:17:38.448Z,29.69
2019-03-24T10:20:06.988Z,30.64
2019-03-24T10:22:35.270Z,32.01
2019-03-24T10:25:04.877Z,31.64
2019-03-24T10:27:33.163Z,30.84
2019-03-24T10:30:01.456Z,29.13
2019-03-24T10:32:29.739Z,29.58
2019-03-24T10:34:58.010Z,29.46
2019-03-24T10:37:26.310Z,29.78
2019-03-24T10:39:54.583Z,29.44
2019-03-24T10:42:22.959Z,29.30
2019-03-24T10:44:51.244Z,28.38
2019-03-24T10:47:19.534Z,28.38
2019-03-24T10:49:47.798Z,27.44
2019-03-24T10:52:16.070Z,27.70
2019-03-24T10:54:44.339Z,28.33
2019-03-24T10:57:12.621Z,28.04
2019-03-24T10:59:40.955Z,28.11
2019-03-24T11:02:09.269Z,27.80
2019-03-24T11:04:37.561Z,27.67
2019-03-24T11:07:05.843Z,28.15
2019-03-24T11:09:34.143Z,27.13
2019-03-24T11:12:02.435Z,28.47
2019-03-24T11:14:30.727Z,27.23
2019-03-24T11:16:58.989Z,27.28
2019-03-24T11:19:35.350Z,27.09
2019-03-24T11:21:57.275Z,27.57
2019-03-24T11:24:25.582Z,26.87
2019-03-24T11:26:55.613Z,26.28
2019-03-24T11:29:23.902Z,26.55
2019-03-24T11:31:52.164Z,26.08
2019-03-24T11:34:20.469Z,25.67
2019-03-24T11:36:48.746Z,25.90
2019-03-24T11:39:16.998Z,27.22
2019-03-24T11:41:46.227Z,26.32
2019-03-24T11:44:14.507Z,26.35
2019-03-24T11:46:42.816Z,25.40
2019-03-24T11:49:16.142Z,24.93
2019-03-24T11:51:44.580Z,25.00
2019-03-24T11:54:12.886Z,24.83
2019-03-24T11:56:41.172Z,25.23
2019-03-24T11:59:09.441Z,27.56
2019-03-24T12:01:38.591Z,26.63
2019-03-24T12:04:07.157Z,27.02
2019-03-24T12:06:35.494Z,26.94
2019-03-24T12:09:05.049Z,26.58
2019-03-24T12:11:33.318Z,26.57
2019-03-24T12:14:01.635Z,28.94
2019-03-24T12:16:29.928Z,28.91
2019-03-24T12:18:58.234Z,28.26
2019-03-24T12:21:26.544Z,28.18
2019-03-24T12:23:54.802Z,27.64
2019-03-24T12:26:23.122Z,27.27
2019-03-24T12:28:51.408Z,29.06
2019-03-24T12:31:19.703Z,29.20
2019-03-24T12:33:48.003Z,28.92
2019-03-24T12:36:16.317Z,29.22
2019-03-24T12:38:44.601Z,28.56
2019-03-24T12:41:14.796Z,30.27
2019-03-24T12:43:43.097Z,29.96
2019-03-24T12:46:11.391Z,30.83
2019-03-24T12:48:39.649Z,29.96
2019-03-24T12:51:07.946Z,30.12
2019-03-24T12:53:36.217Z,30.11
2019-03-24T12:56:04.511Z,29.96
2019-03-24T12:58:32.776Z,30.92
2019-03-24T13:01:01.165Z,30.34
2019-03-24T13:03:29.469Z,30.36
2019-03-24T13:05:57.754Z,31.25
2019-03-24T13:08:26.064Z,30.16
2019-03-24T13:10:54.344Z,29.18
2019-03-24T13:13:22.638Z,29.29
2019-03-24T13:15:50.929Z,28.04
2019-03-24T13:18:19.195Z,27.80
2019-03-24T13:20:47.481Z,26.80
2019-03-24T13:23:15.794Z,29.68
2019-03-24T13:25:44.063Z,30.65
2019-03-24T13:28:12.366Z,30.84
2019-03-24T13:30:40.616Z,31.85
2019-03-24T13:33:08.886Z,31.39
2019-03-24T13:35:37.179Z,30.33
2019-03-24T13:38:05.459Z,30.38
2019-03-24T13:40:33.742Z,29.16
2019-03-24T13:43:02.039Z,30.11
2019-03-24T13:45:30.394Z,30.38
2019-03-24T13:47:58.714Z,29.13
2019-03-24T13:50:31.479Z,28.78
2019-03-24T13:52:58.191Z,29.77
2019-03-24T13:55:26.753Z,29.54
2019-03-24T13:57:55.275Z,28.94
2019-03-24T14:00:23.878Z,28.48
2019-03-24T14:02:52.166Z,28.38
2019-03-24T14:05:26.043Z,28.04
2019-03-24T14:07:54.299Z,28.47
2019-03-24T14:10:22.597Z,25.84
2019-03-24T14:12:50.866Z,25.10
2019-03-24T14:15:19.160Z,24.94
2019-03-24T14:17:47.426Z,26.96
2019-03-24T14:20:15.800Z,29.37
2019-03-24T14:22:44.094Z,29.84
2019-03-24T14:25:12.501Z,28.81
2019-03-24T14:27:40.788Z,27.79
2019-03-24T14:30:09.720Z,27.76
2019-03-24T14:32:38.006Z,28.95
2019-03-24T14:35:09.709Z,27.22
2019-03-24T14:37:38.949Z,25.60
2019-03-24T14:40:07.971Z,24.60
2019-03-24T14:42:36.361Z,24.63
2019-03-24T14:45:06.778Z,25.41
2019-03-24T14:47:35.067Z,23.86
2019-03-24T14:50:03.830Z,23.10
2019-03-24T14:52:32.166Z,22.73
2019-03-24T14:55:00.452Z,25.00
2019-03-24T14:57:28.767Z,25.68
2019-03-24T14:59:57.098Z,24.54
2019-03-24T15:02:25.387Z,26.89
2019-03-24T15:04:53.687Z,24.56
2019-03-24T15:07:23.532Z,23.78
2019-03-24T15:09:51.757Z,24.35
2019-03-24T15:12:20.038Z,24.83
2019-03-24T15:14:48.335Z,25.06
2019-03-24T15:17:16.620Z,25.42
2019-03-24T15:19:44.906Z,26.40
2019-03-24T15:22:13.285Z,28.18
2019-03-24T15:24:41.555Z,29.38
2019-03-24T15:27:09.861Z,28.24
2019-03-24T15:29:38.131Z,29.09
2019-03-24T15:32:06.397Z,29.54
2019-03-24T15:34:34.683Z,28.36
2019-03-24T15:37:02.984Z,28.02
2019-03-24T15:39:31.307Z,28.35
2019-03-24T15:41:59.697Z,28.48
2019-03-24T15:44:28.043Z,28.21
2019-03-24T15:46:56.333Z,27.88
2019-03-24T15:49:24.658Z,28.55
2019-03-24T15:51:52.892Z,28.52
2019-03-24T15:54:21.216Z,29.92
2019-03-24T15:56:49.496Z,30.28
2019-03-24T15:59:17.838Z,30.55
2019-03-24T16:01:46.146Z,29.28
2019-03-24T16:04:14.416Z,29.56
2019-03-24T16:06:47.312Z,30.86
2019-03-24T16:09:19.597Z,30.45
2019-03-24T16:11:47.960Z,29.33
2019-03-24T16:14:16.545Z,30.67
2019-03-24T16:16:44.868Z,29.60
2019-03-24T16:19:13.189Z,29.90
2019-03-24T16:21:41.558Z,29.77
2019-03-24T16:24:09.825Z,30.69
2019-03-24T16:26:38.124Z,31.37
2019-03-24T16:29:06.435Z,30.63
2019-03-24T16:31:34.743Z,30.88
2019-03-24T16:34:05.401Z,30.39
2019-03-24T16:36:33.050Z,30.52
2019-03-24T16:39:03.838Z,29.42
2019-03-24T16:41:32.425Z,28.65
2019-03-24T16:44:00.693Z,30.92
2019-03-24T16:46:29.081Z,30.55
2019-03-24T16:48:57.355Z,31.22
2019-03-24T16:51:25.619Z,31.42
2019-03-24T16:53:53.925Z,31.86
2019-03-24T16:56:22.205Z,31.00
2019-03-24T16:58:50.499Z,32.20
2019-03-24T17:01:18.796Z,31.65
2019-03-24T17:03:47.345Z,30.97
2019-03-24T17:06:15.626Z,31.32
2019-03-24T17:08:43.899Z,31.03
2019-03-24T17:11:12.172Z,32.34
2019-03-24T17:13:40.455Z,31.61
2019-03-24T17:16:08.732Z,32.79
2019-03-24T17:18:38.638Z,32.29
2019-03-24T17:21:06.924Z,32.50
2019-03-24T17:23:35.212Z,30.94
2019-03-24T17:26:03.521Z,30.26
2019-03-24T17:28:31.859Z,31.33
2019-03-24T17:31:00.135Z,29.78
2019-03-24T17:33:28.506Z,31.84
2019-03-24T17:35:56.799Z,31.16
2019-03-24T17:38:25.071Z,30.40
2019-03-24T17:40:53.342Z,31.22
2019-03-24T17:43:21.696Z,31.32
2019-03-24T17:45:49.985Z,30.54
2019-03-24T17:48:18.278Z,31.60
2019-03-24T17:50:46.562Z,30.73
2019-03-24T17:53:14.837Z,31.85
2019-03-24T17:55:43.140Z,32.05
2019-03-24T17:58:11.405Z,32.96
2019-03-24T18:00:42.836Z,32.70
2019-03-24T18:03:11.483Z,33.06
2019-03-24T18:05:39.982Z,31.52
2019-03-24T18:08:08.347Z,31.39
2019-03-24T18:10:36.623Z,32.77
2019-03-24T18:13:04.971Z,32.86
2019-03-24T18:15:33.326Z,33.41
2019-03-24T18:18:01.590Z,33.37
2019-03-24T18:20:32.114Z,33.49
2019-03-24T18:23:00.395Z,33.52
2019-03-24T18:25:28.718Z,33.14
2019-03-24T18:27:56.948Z,32.51
2019-03-24T18:30:26.271Z,31.89
2019-03-24T18:32:54.568Z,32.94
2019-03-24T18:35:22.907Z,32.78
2019-03-24T18:37:51.207Z,32.97
2019-03-24T18:40:20.836Z,32.12
2019-03-24T18:42:49.192Z,32.44
2019-03-24T18:45:17.770Z,31.46
2019-03-24T18:47:46.113Z,31.12
2019-03-24T18:50:14.516Z,31.25
2019-03-24T18:52:45.439Z,30.90
2019-03-24T18:55:14.380Z,31.29
2019-03-24T18:57:42.658Z,31.37
2019-03-24T19:00:12.757Z,31.28
2019-03-24T19:02:41.168Z,31.48
2019-03-24T19:05:09.595Z,30.92
2019-03-24T19:07:38.654Z,31.59
2019-03-24T19:10:09.191Z,32.35
2019-03-24T19:12:37.859Z,31.40
2019-03-24T19:15:09.374Z,32.26
2019-03-24T19:17:37.740Z,33.19
2019-03-24T19:20:07.713Z,32.22
2019-03-24T19:22:36.079Z,30.92
2019-03-24T19:25:06.580Z,32.90
2019-03-24T19:27:34.886Z,32.61
2019-03-24T19:30:04.206Z,33.34
2019-03-24T19:32:32.549Z,32.62
2019-03-24T19:35:00.826Z,32.92
2019-03-24T19:37:29.593Z,34.27
2019-03-24T19:39:57.879Z,32.71
2019-03-24T19:42:26.255Z,32.85
2019-03-24T19:44:54.574Z,33.12
2019-03-24T19:47:23.232Z,33.62
2019-03-24T19:49:51.536Z,32.68
2019-03-24T19:52:19.800Z,32.83
2019-03-24T19:54:48.070Z,33.28
2019-03-24T19:57:16.375Z,34.52
2019-03-24T19:59:44.647Z,34.35
2019-03-24T20:02:12.926Z,34.69
2019-03-24T20:04:41.224Z,34.84
2019-03-24T20:07:09.490Z,33.74
2019-03-24T20:09:37.848Z,34.18
2019-03-24T20:12:06.142Z,33.28
2019-03-24T20:14:34.438Z,33.38
2019-03-24T20:17:02.702Z,33.38
2019-03-24T20:19:30.999Z,32.85
2019-03-24T20:21:59.298Z,33.44
2019-03-24T20:24:27.618Z,33.52
2019-03-24T20:26:55.902Z,34.04
2019-03-24T20:29:24.203Z,33.64
2019-03-24T20:31:52.509Z,33.70
2019-03-24T20:34:20.770Z,33.05
2019-03-24T20:36:49.109Z,32.54
2019-03-24T20:39:17.366Z,33.16
2019-03-24T20:41:45.669Z,32.69
2019-03-24T20:44:13.967Z,32.26
2019-03-24T20:46:42.264Z,32.68
2019-03-24T20:49:10.555Z,33.13
2019-03-24T20:51:38.830Z,32.24
2019-03-24T20:54:07.114Z,32.42
2019-03-24T20:56:35.390Z,31.99
2019-03-24T20:59:03.677Z,31.69
2019-03-24T21:01:31.970Z,31.25
2019-03-24T21:04:00.291Z,30.79
2019-03-24T21:06:28.583Z,31.22
2019-03-24T21:08:56.860Z,30.27
2019-03-24T21:11:25.146Z,31.68
2019-03-24T21:13:53.489Z,30.35
2019-03-24T21:16:21.843Z,29.45
2019-03-24T21:18:51.190Z,29.50
2019-03-24T21:21:19.539Z,29.58
2019-03-24T21:23:47.805Z,30.01
2019-03-24T21:26:16.082Z,29.84
2019-03-24T21:28:44.367Z,29.85
2019-03-24T21:31:12.619Z,30.16
2019-03-24T21:33:40.906Z,30.64
2019-03-24T21:36:09.166Z,29.91
2019-03-24T21:38:37.469Z,30.01
2019-03-24T21:41:05.815Z,30.24
2019-03-24T21:43:34.104Z,30.19
2019-03-24T21:46:02.406Z,30.37
2019-03-24T21:48:30.670Z,29.98
2019-03-24T21:50:58.956Z,30.44
2019-03-24T21:53:27.236Z,29.50
2019-03-24T21:55:55.519Z,29.86
2019-03-24T21:58:23.788Z,30.28
2019-03-24T22:00:52.137Z,30.63
2019-03-24T22:03:20.417Z,30.61
2019-03-24T22:05:48.695Z,31.08
2019-03-24T22:08:16.993Z,30.67
2019-03-24T22:10:45.272Z,30.57
2019-03-24T22:13:13.567Z,30.05
2019-03-24T22:15:41.844Z,31.40
2019-03-24T22:18:10.137Z,31.00
2019-03-24T22:20:48.442Z,30.24
2019-03-24T22:23:08.445Z,30.51
2019-03-24T22:25:36.801Z,30.25
2019-03-24T22:28:05.098Z,30.13
2019-03-24T22:30:33.335Z,30.22
2019-03-24T22:33:01.608Z,30.35
2019-03-24T22:35:29.871Z,30.17
2019-03-24T22:37:59.989Z,30.43
2019-03-24T22:40:28.269Z,29.76
2019-03-24T22:42:56.550Z,30.31
2019-03-24T22:45:24.880Z,29.59
2019-03-24T22:47:53.213Z,30.01
2019-03-24T22:50:21.500Z,29.52
2019-03-24T22:52:49.773Z,29.67
2019-03-24T22:55:18.115Z,29.92
2019-03-24T22:57:46.453Z,29.06
2019-03-24T23:00:32.831Z,29.26
2019-03-24T23:03:01.251Z,29.81
2019-03-24T23:05:29.511Z,29.31
2019-03-24T23:07:57.783Z,29.69
2019-03-24T23:10:26.136Z,28.71
2019-03-24T23:12:54.861Z,29.23
2019-03-24T23:15:23.138Z,29.41
2019-03-24T23:17:51.417Z,29.15
2019-03-24T23:20:19.701Z,28.69
2019-03-24T23:22:47.986Z,28.52
2019-03-24T23:25:16.276Z,29.22
2019-03-24T23:27:44.555Z,28.84
2019-03-24T23:30:13.286Z,28.44
2019-03-24T23:32:41.564Z,29.10
2019-03-24T23:35:10.402Z,28.79
2019-03-24T23:37:38.677Z,30.83
2019-03-24T23:40:07.185Z,29.04
2019-03-24T23:42:37.372Z,31.35
2019-03-24T23:45:07.566Z,34.19
2019-03-24T23:47:35.841Z,31.33
2019-03-24T23:50:05.669Z,31.74
2019-03-24T23:52:33.944Z,31.97
2019-03-24T23:55:02.240Z,30.97
2019-03-24T23:57:30.555Z,31.13
2019-03-24T23:59:58.854Z,31.80
